sensor_id;sensor_type;location;lat;lon;timestamp;pressure;altitude;pressure_sealevel;temperature;humidity
59154;BME280;44935;48.944;9.418;2024-03-23T00:55:13;97953.90;;;11.07;45.11
59154;BME280;44935;48.944;9.418;2024-03-23T00:57:40;97946.04;;;11.63;44.42
59154;BME280;44935;48.944;9.418;2024-03-23T01:00:08;97940.97;;;11.07;44.87
59154;BME280;44935;48.944;9.418;2024-03-23T01:02:35;97933.00;;;12.00;43.21
59154;BME280;44935;48.944;9.418;2024-03-23T01:05:02;97933.75;;;10.98;44.95
59154;BME280;44935;48.944;9.418;2024-03-23T01:07:30;97931.31;;;11.95;43.43
59154;BME280;44935;48.944;9.418;2024-03-23T01:09:57;97926.89;;;11.26;44.44
59154;BME280;44935;48.944;9.418;2024-03-23T01:12:24;97921.82;;;11.66;43.97
59154;BME280;44935;48.944;9.418;2024-03-23T01:14:51;97924.66;;;11.05;44.77
59154;BME280;44935;48.944;9.418;2024-03-23T01:17:19;97926.01;;;11.18;44.82
59154;BME280;44935;48.944;9.418;2024-03-23T01:19:45;97925.59;;;11.43;44.48
59154;BME280;44935;48.944;9.418;2024-03-23T01:22:12;97916.22;;;11.41;44.25
59154;BME280;44935;48.944;9.418;2024-03-23T01:24:39;97915.10;;;11.55;44.58
59154;BME280;44935;48.944;9.418;2024-03-23T01:27:06;97917.92;;;11.52;44.98
59154;BME280;44935;48.944;9.418;2024-03-23T01:29:33;97912.39;;;11.22;45.19
59154;BME280;44935;48.944;9.418;2024-03-23T01:32:00;97904.03;;;11.14;45.08
59154;BME280;44935;48.944;9.418;2024-03-23T01:34:27;97889.38;;;10.75;45.37
59154;BME280;44935;48.944;9.418;2024-03-23T01:36:54;97884.10;;;10.86;45.62
59154;BME280;44935;48.944;9.418;2024-03-23T01:39:21;97881.30;;;10.70;45.94
59154;BME280;44935;48.944;9.418;2024-03-23T01:41:47;97883.01;;;11.24;44.83
59154;BME280;44935;48.944;9.418;2024-03-23T01:44:15;97881.64;;;12.07;43.86
59154;BME280;44935;48.944;9.418;2024-03-23T01:46:44;97873.24;;;12.11;43.46
59154;BME280;44935;48.944;9.418;2024-03-23T01:49:11;97877.55;;;11.68;44.04
59154;BME280;44935;48.944;9.418;2024-03-23T01:51:39;97878.38;;;11.50;44.29
59154;BME280;44935;48.944;9.418;2024-03-23T01:54:07;97864.13;;;9.34;48.44
59154;BME280;44935;48.944;9.418;2024-03-23T01:56:35;97860.73;;;11.16;45.60
59154;BME280;44935;48.944;9.418;2024-03-23T01:59:03;97854.07;;;11.26;45.03
59154;BME280;44935;48.944;9.418;2024-03-23T02:01:31;97844.67;;;11.54;44.50
59154;BME280;44935;48.944;9.418;2024-03-23T02:03:58;97844.67;;;12.06;43.94
59154;BME280;44935;48.944;9.418;2024-03-23T02:06:26;97841.35;;;11.84;44.05
59154;BME280;44935;48.944;9.418;2024-03-23T02:08:53;97838.12;;;10.01;46.92
59154;BME280;44935;48.944;9.418;2024-03-23T02:11:21;97826.96;;;12.04;43.79
59154;BME280;44935;48.944;9.418;2024-03-23T02:13:47;97818.36;;;11.66;44.21
59154;BME280;44935;48.944;9.418;2024-03-23T02:16:14;97823.09;;;12.06;43.39
59154;BME280;44935;48.944;9.418;2024-03-23T02:18:41;97823.69;;;12.15;42.77
59154;BME280;44935;48.944;9.418;2024-03-23T02:21:09;97819.48;;;12.19;42.35
59154;BME280;44935;48.944;9.418;2024-03-23T02:23:35;97819.62;;;12.19;43.12
59154;BME280;44935;48.944;9.418;2024-03-23T02:26:03;97822.10;;;11.57;43.79
59154;BME280;44935;48.944;9.418;2024-03-23T02:28:30;97818.86;;;11.51;43.51
59154;BME280;44935;48.944;9.418;2024-03-23T02:30:57;97810.83;;;11.64;43.25
59154;BME280;44935;48.944;9.418;2024-03-23T02:33:24;97808.95;;;11.37;44.22
59154;BME280;44935;48.944;9.418;2024-03-23T02:35:55;97808.89;;;10.95;44.98
59154;BME280;44935;48.944;9.418;2024-03-23T02:38:22;97807.40;;;11.56;44.39
59154;BME280;44935;48.944;9.418;2024-03-23T02:40:49;97810.80;;;10.97;44.97
59154;BME280;44935;48.944;9.418;2024-03-23T02:43:16;97804.95;;;11.54;44.41
59154;BME280;44935;48.944;9.418;2024-03-23T02:45:43;97799.43;;;11.14;45.04
59154;BME280;44935;48.944;9.418;2024-03-23T02:48:10;97795.99;;;11.73;44.50
59154;BME280;44935;48.944;9.418;2024-03-23T02:50:37;97795.25;;;11.43;44.56
59154;BME280;44935;48.944;9.418;2024-03-23T02:53:04;97796.17;;;10.83;45.62
59154;BME280;44935;48.944;9.418;2024-03-23T02:55:30;97784.71;;;11.23;44.91
59154;BME280;44935;48.944;9.418;2024-03-23T02:57:57;97785.34;;;10.15;47.14
59154;BME280;44935;48.944;9.418;2024-03-23T03:00:24;97778.64;;;10.62;46.08
59154;BME280;44935;48.944;9.418;2024-03-23T03:02:51;97775.49;;;11.37;44.75
59154;BME280;44935;48.944;9.418;2024-03-23T03:05:18;97771.60;;;11.53;44.30
59154;BME280;44935;48.944;9.418;2024-03-23T03:07:45;97773.23;;;11.82;43.64
59154;BME280;44935;48.944;9.418;2024-03-23T03:10:12;97777.76;;;11.64;43.60
59154;BME280;44935;48.944;9.418;2024-03-23T03:12:39;97781.55;;;11.56;43.97
59154;BME280;44935;48.944;9.418;2024-03-23T03:15:07;97782.29;;;11.31;43.87
59154;BME280;44935;48.944;9.418;2024-03-23T03:17:35;97784.73;;;11.23;44.38
59154;BME280;44935;48.944;9.418;2024-03-23T03:20:02;97778.88;;;11.13;44.47
59154;BME280;44935;48.944;9.418;2024-03-23T03:22:29;97783.48;;;11.14;44.55
59154;BME280;44935;48.944;9.418;2024-03-23T03:24:55;97779.81;;;10.68;45.49
59154;BME280;44935;48.944;9.418;2024-03-23T03:27:22;97775.48;;;10.91;45.13
59154;BME280;44935;48.944;9.418;2024-03-23T03:29:49;97763.86;;;11.09;44.28
59154;BME280;44935;48.944;9.418;2024-03-23T03:32:16;97761.82;;;11.40;43.66
59154;BME280;44935;48.944;9.418;2024-03-23T03:34:43;97749.61;;;11.30;43.65
59154;BME280;44935;48.944;9.418;2024-03-23T03:37:10;97753.14;;;11.04;44.01
59154;BME280;44935;48.944;9.418;2024-03-23T03:39:37;97757.12;;;11.83;43.35
59154;BME280;44935;48.944;9.418;2024-03-23T03:42:04;97745.99;;;11.36;43.79
59154;BME280;44935;48.944;9.418;2024-03-23T03:44:31;97747.39;;;11.38;43.29
59154;BME280;44935;48.944;9.418;2024-03-23T03:46:58;97751.15;;;11.74;43.03
59154;BME280;44935;48.944;9.418;2024-03-23T03:49:26;97747.76;;;11.99;42.61
59154;BME280;44935;48.944;9.418;2024-03-23T03:51:54;97747.42;;;11.81;42.30
59154;BME280;44935;48.944;9.418;2024-03-23T03:54:21;97748.45;;;11.84;42.33
59154;BME280;44935;48.944;9.418;2024-03-23T03:56:48;97745.71;;;11.28;43.33
59154;BME280;44935;48.944;9.418;2024-03-23T03:59:15;97735.32;;;11.32;44.11
59154;BME280;44935;48.944;9.418;2024-03-23T04:01:42;97728.67;;;11.04;44.24
59154;BME280;44935;48.944;9.418;2024-03-23T04:04:09;97721.37;;;10.58;44.90
59154;BME280;44935;48.944;9.418;2024-03-23T04:06:36;97711.30;;;9.33;47.18
59154;BME280;44935;48.944;9.418;2024-03-23T04:09:03;97692.31;;;5.94;55.29
59154;BME280;44935;48.944;9.418;2024-03-23T04:11:30;97675.38;;;5.04;56.85
59154;BME280;44935;48.944;9.418;2024-03-23T04:14:02;97682.82;;;7.65;52.94
59154;BME280;44935;48.944;9.418;2024-03-23T04:16:31;97685.61;;;10.08;47.59
59154;BME280;44935;48.944;9.418;2024-03-23T04:18:58;97681.56;;;10.55;46.51
59154;BME280;44935;48.944;9.418;2024-03-23T04:21:25;97675.12;;;8.57;49.25
59154;BME280;44935;48.944;9.418;2024-03-23T04:23:52;97671.57;;;8.58;49.58
59154;BME280;44935;48.944;9.418;2024-03-23T04:26:19;97663.20;;;10.57;46.46
59154;BME280;44935;48.944;9.418;2024-03-23T04:28:46;97665.53;;;10.50;46.26
59154;BME280;44935;48.944;9.418;2024-03-23T04:31:12;97675.21;;;10.31;46.24
59154;BME280;44935;48.944;9.418;2024-03-23T04:33:39;97689.07;;;10.31;47.37
59154;BME280;44935;48.944;9.418;2024-03-23T04:36:06;97704.62;;;10.41;47.03
59154;BME280;44935;48.944;9.418;2024-03-23T04:38:34;97716.85;;;10.19;48.08
59154;BME280;44935;48.944;9.418;2024-03-23T04:41:01;97723.18;;;9.85;49.17
59154;BME280;44935;48.944;9.418;2024-03-23T04:43:28;97730.17;;;8.80;51.54
59154;BME280;44935;48.944;9.418;2024-03-23T04:45:56;97748.49;;;8.54;54.49
59154;BME280;44935;48.944;9.418;2024-03-23T04:48:23;97747.65;;;8.21;55.15
59154;BME280;44935;48.944;9.418;2024-03-23T04:50:55;97751.12;;;7.95;56.12
59154;BME280;44935;48.944;9.418;2024-03-23T04:53:22;97755.27;;;7.77;56.63
59154;BME280;44935;48.944;9.418;2024-03-23T04:55:49;97740.42;;;8.24;56.97
59154;BME280;44935;48.944;9.418;2024-03-23T04:58:16;97731.66;;;8.22;56.70
59154;BME280;44935;48.944;9.418;2024-03-23T05:00:43;97733.19;;;8.58;56.98
59154;BME280;44935;48.944;9.418;2024-03-23T05:03:10;97724.63;;;8.35;57.83
59154;BME280;44935;48.944;9.418;2024-03-23T05:05:36;97720.28;;;8.69;59.68
59154;BME280;44935;48.944;9.418;2024-03-23T05:08:04;97715.90;;;8.62;59.42
59154;BME280;44935;48.944;9.418;2024-03-23T05:10:31;97723.43;;;8.86;59.43
59154;BME280;44935;48.944;9.418;2024-03-23T05:12:58;97726.50;;;8.41;60.27
59154;BME280;44935;48.944;9.418;2024-03-23T05:15:25;97725.98;;;9.02;59.60
59154;BME280;44935;48.944;9.418;2024-03-23T05:17:52;97713.78;;;8.82;60.41
59154;BME280;44935;48.944;9.418;2024-03-23T05:20:19;97718.77;;;8.79;59.94
59154;BME280;44935;48.944;9.418;2024-03-23T05:22:46;97719.75;;;9.05;59.97
59154;BME280;44935;48.944;9.418;2024-03-23T05:25:13;97717.67;;;9.02;59.34
59154;BME280;44935;48.944;9.418;2024-03-23T05:27:40;97723.35;;;8.70;60.29
59154;BME280;44935;48.944;9.418;2024-03-23T05:30:08;97726.36;;;9.27;59.92
59154;BME280;44935;48.944;9.418;2024-03-23T05:32:35;97731.81;;;9.04;60.48
59154;BME280;44935;48.944;9.418;2024-03-23T05:35:01;97734.42;;;8.80;61.50
59154;BME280;44935;48.944;9.418;2024-03-23T05:37:28;97735.35;;;8.78;61.62
59154;BME280;44935;48.944;9.418;2024-03-23T05:39:55;97738.78;;;8.31;62.82
59154;BME280;44935;48.944;9.418;2024-03-23T05:42:22;97741.47;;;8.52;63.06
59154;BME280;44935;48.944;9.418;2024-03-23T05:44:49;97748.82;;;8.39;63.41
59154;BME280;44935;48.944;9.418;2024-03-23T05:47:16;97760.38;;;8.62;63.53
59154;BME280;44935;48.944;9.418;2024-03-23T05:49:43;97757.85;;;7.74;64.40
59154;BME280;44935;48.944;9.418;2024-03-23T05:52:10;97761.06;;;7.81;65.23
59154;BME280;44935;48.944;9.418;2024-03-23T05:54:37;97767.13;;;7.69;65.23
59154;BME280;44935;48.944;9.418;2024-03-23T05:57:05;97775.17;;;7.48;66.19
59154;BME280;44935;48.944;9.418;2024-03-23T05:59:32;97779.02;;;7.60;65.84
59154;BME280;44935;48.944;9.418;2024-03-23T06:01:59;97778.44;;;7.63;65.18
59154;BME280;44935;48.944;9.418;2024-03-23T06:04:26;97784.05;;;7.57;65.86
59154;BME280;44935;48.944;9.418;2024-03-23T06:06:53;97792.55;;;7.66;65.00
59154;BME280;44935;48.944;9.418;2024-03-23T06:09:20;97788.47;;;7.55;64.68
59154;BME280;44935;48.944;9.418;2024-03-23T06:11:48;97792.95;;;7.92;64.10
59154;BME280;44935;48.944;9.418;2024-03-23T06:14:15;97791.78;;;7.74;63.82
59154;BME280;44935;48.944;9.418;2024-03-23T06:16:42;97789.47;;;7.47;65.10
59154;BME280;44935;48.944;9.418;2024-03-23T06:19:09;97794.51;;;7.72;64.43
59154;BME280;44935;48.944;9.418;2024-03-23T06:21:36;97794.56;;;7.31;64.96
59154;BME280;44935;48.944;9.418;2024-03-23T06:24:03;97805.45;;;7.22;65.78
59154;BME280;44935;48.944;9.418;2024-03-23T06:26:31;97805.20;;;7.05;66.20
59154;BME280;44935;48.944;9.418;2024-03-23T06:28:57;97812.39;;;7.20;66.46
59154;BME280;44935;48.944;9.418;2024-03-23T06:31:24;97825.01;;;6.94;67.58
59154;BME280;44935;48.944;9.418;2024-03-23T06:33:51;97819.37;;;6.91;66.36
59154;BME280;44935;48.944;9.418;2024-03-23T06:36:18;97814.16;;;6.50;65.56
59154;BME280;44935;48.944;9.418;2024-03-23T06:38:45;97817.82;;;7.15;64.39
59154;BME280;44935;48.944;9.418;2024-03-23T06:41:12;97836.49;;;7.19;63.89
59154;BME280;44935;48.944;9.418;2024-03-23T06:43:39;97845.62;;;7.67;62.95
59154;BME280;44935;48.944;9.418;2024-03-23T06:46:06;97859.92;;;7.34;63.99
59154;BME280;44935;48.944;9.418;2024-03-23T06:48:32;97870.11;;;7.63;63.94
59154;BME280;44935;48.944;9.418;2024-03-23T06:50:59;97874.94;;;7.43;63.44
59154;BME280;44935;48.944;9.418;2024-03-23T06:53:26;97884.90;;;6.96;64.36
59154;BME280;44935;48.944;9.418;2024-03-23T06:55:53;97887.19;;;7.47;63.00
59154;BME280;44935;48.944;9.418;2024-03-23T06:58:22;97892.20;;;7.42;63.06
59154;BME280;44935;48.944;9.418;2024-03-23T07:00:49;97899.22;;;6.78;64.01
59154;BME280;44935;48.944;9.418;2024-03-23T07:03:17;97905.06;;;7.01;62.71
59154;BME280;44935;48.944;9.418;2024-03-23T07:05:44;97909.88;;;6.46;64.44
59154;BME280;44935;48.944;9.418;2024-03-23T07:08:11;97908.85;;;6.30;64.84
59154;BME280;44935;48.944;9.418;2024-03-23T07:10:39;97908.26;;;6.91;63.64
59154;BME280;44935;48.944;9.418;2024-03-23T07:13:06;97923.64;;;6.99;61.81
59154;BME280;44935;48.944;9.418;2024-03-23T07:15:33;97932.20;;;6.15;63.45
59154;BME280;44935;48.944;9.418;2024-03-23T07:18:00;97941.92;;;6.85;63.20
59154;BME280;44935;48.944;9.418;2024-03-23T07:20:27;97947.89;;;6.66;61.72
59154;BME280;44935;48.944;9.418;2024-03-23T07:22:55;97946.10;;;6.70;63.16
59154;BME280;44935;48.944;9.418;2024-03-23T07:25:21;97946.48;;;6.11;64.41
59154;BME280;44935;48.944;9.418;2024-03-23T07:27:48;97946.88;;;5.79;66.12
59154;BME280;44935;48.944;9.418;2024-03-23T07:30:15;97934.06;;;6.46;64.14
59154;BME280;44935;48.944;9.418;2024-03-23T07:32:44;97952.08;;;6.81;63.31
59154;BME280;44935;48.944;9.418;2024-03-23T07:35:11;97958.07;;;6.79;62.86
59154;BME280;44935;48.944;9.418;2024-03-23T07:37:37;97958.58;;;6.62;63.72
59154;BME280;44935;48.944;9.418;2024-03-23T07:40:06;97961.78;;;6.90;62.38
59154;BME280;44935;48.944;9.418;2024-03-23T07:42:33;97968.07;;;6.82;63.14
59154;BME280;44935;48.944;9.418;2024-03-23T07:45:00;97962.97;;;6.90;62.65
59154;BME280;44935;48.944;9.418;2024-03-23T07:47:27;97961.78;;;6.67;60.76
59154;BME280;44935;48.944;9.418;2024-03-23T07:49:54;97957.40;;;7.00;61.24
59154;BME280;44935;48.944;9.418;2024-03-23T07:52:20;97975.15;;;6.72;62.02
59154;BME280;44935;48.944;9.418;2024-03-23T07:54:47;98000.43;;;7.29;61.28
59154;BME280;44935;48.944;9.418;2024-03-23T07:57:14;98009.67;;;7.25;60.15
59154;BME280;44935;48.944;9.418;2024-03-23T07:59:41;97997.34;;;6.81;60.98
59154;BME280;44935;48.944;9.418;2024-03-23T08:02:08;98006.92;;;6.25;61.19
59154;BME280;44935;48.944;9.418;2024-03-23T08:04:35;98012.38;;;6.33;61.68
59154;BME280;44935;48.944;9.418;2024-03-23T08:07:02;98026.06;;;6.30;61.84
59154;BME280;44935;48.944;9.418;2024-03-23T08:09:29;98029.47;;;6.72;61.14
59154;BME280;44935;48.944;9.418;2024-03-23T08:11:55;98037.77;;;6.57;61.22
59154;BME280;44935;48.944;9.418;2024-03-23T08:14:22;98042.16;;;6.70;61.17
59154;BME280;44935;48.944;9.418;2024-03-23T08:16:49;98042.50;;;7.04;60.97
59154;BME280;44935;48.944;9.418;2024-03-23T08:19:16;98044.09;;;6.69;62.45
59154;BME280;44935;48.944;9.418;2024-03-23T08:21:43;98054.05;;;7.22;61.32
59154;BME280;44935;48.944;9.418;2024-03-23T08:24:10;98069.38;;;7.64;60.18
59154;BME280;44935;48.944;9.418;2024-03-23T08:26:36;98088.09;;;6.47;63.78
59154;BME280;44935;48.944;9.418;2024-03-23T08:29:04;98103.67;;;7.16;61.55
59154;BME280;44935;48.944;9.418;2024-03-23T08:31:30;98108.02;;;7.12;59.87
59154;BME280;44935;48.944;9.418;2024-03-23T08:33:57;98100.83;;;6.42;63.11
59154;BME280;44935;48.944;9.418;2024-03-23T08:36:24;98106.70;;;7.42;59.56
59154;BME280;44935;48.944;9.418;2024-03-23T08:38:51;98099.51;;;7.67;58.64
59154;BME280;44935;48.944;9.418;2024-03-23T08:41:18;98106.79;;;8.11;57.05
59154;BME280;44935;48.944;9.418;2024-03-23T08:43:45;98127.73;;;7.30;57.62
59154;BME280;44935;48.944;9.418;2024-03-23T08:46:13;98151.81;;;7.28;58.84
59154;BME280;44935;48.944;9.418;2024-03-23T08:48:42;98165.38;;;6.77;59.23
59154;BME280;44935;48.944;9.418;2024-03-23T08:51:10;98174.16;;;6.66;59.51
59154;BME280;44935;48.944;9.418;2024-03-23T08:53:38;98173.82;;;6.38;60.45
59154;BME280;44935;48.944;9.418;2024-03-23T08:56:06;98168.54;;;6.44;59.86
59154;BME280;44935;48.944;9.418;2024-03-23T08:58:34;98163.33;;;6.37;60.89
59154;BME280;44935;48.944;9.418;2024-03-23T09:01:04;98152.76;;;6.44;59.53
59154;BME280;44935;48.944;9.418;2024-03-23T09:03:32;98136.27;;;6.93;58.80
59154;BME280;44935;48.944;9.418;2024-03-23T09:05:59;98146.40;;;7.11;58.21
59154;BME280;44935;48.944;9.418;2024-03-23T09:08:26;98149.25;;;7.60;57.10
59154;BME280;44935;48.944;9.418;2024-03-23T09:10:53;98160.95;;;7.95;56.73
59154;BME280;44935;48.944;9.418;2024-03-23T09:13:20;98171.11;;;7.67;54.96
59154;BME280;44935;48.944;9.418;2024-03-23T09:15:48;98193.96;;;8.82;52.90
59154;BME280;44935;48.944;9.418;2024-03-23T09:18:16;98205.80;;;8.71;53.70
59154;BME280;44935;48.944;9.418;2024-03-23T09:20:43;98214.70;;;8.76;51.60
59154;BME280;44935;48.944;9.418;2024-03-23T09:23:10;98221.90;;;8.65;50.80
59154;BME280;44935;48.944;9.418;2024-03-23T09:25:38;98224.90;;;6.98;54.26
59154;BME280;44935;48.944;9.418;2024-03-23T09:28:06;98235.22;;;8.98;51.35
59154;BME280;44935;48.944;9.418;2024-03-23T09:30:33;98241.45;;;7.92;54.61
59154;BME280;44935;48.944;9.418;2024-03-23T09:33:00;98246.70;;;8.26;50.02
59154;BME280;44935;48.944;9.418;2024-03-23T09:35:28;98246.18;;;7.56;50.69
59154;BME280;44935;48.944;9.418;2024-03-23T09:37:55;98254.74;;;8.69;50.43
59154;BME280;44935;48.944;9.418;2024-03-23T09:40:21;98248.34;;;10.07;48.36
59154;BME280;44935;48.944;9.418;2024-03-23T09:42:50;98254.75;;;9.24;50.51
59154;BME280;44935;48.944;9.418;2024-03-23T09:45:21;98251.63;;;10.27;48.71
59154;BME280;44935;48.944;9.418;2024-03-23T09:47:49;98250.64;;;10.78;47.15
59154;BME280;44935;48.944;9.418;2024-03-23T09:50:16;98253.76;;;10.60;46.66
59154;BME280;44935;48.944;9.418;2024-03-23T09:52:46;98252.27;;;10.41;46.55
59154;BME280;44935;48.944;9.418;2024-03-23T09:55:13;98242.04;;;9.88;47.05
59154;BME280;44935;48.944;9.418;2024-03-23T09:57:40;98239.48;;;8.68;46.87
59154;BME280;44935;48.944;9.418;2024-03-23T10:00:09;98238.32;;;8.76;49.17
59154;BME280;44935;48.944;9.418;2024-03-23T10:02:37;98233.83;;;8.01;50.07
59154;BME280;44935;48.944;9.418;2024-03-23T10:05:05;98232.02;;;7.53;49.37
59154;BME280;44935;48.944;9.418;2024-03-23T10:07:46;98231.91;;;7.23;50.68
59154;BME280;44935;48.944;9.418;2024-03-23T10:10:16;98237.42;;;7.02;50.47
59154;BME280;44935;48.944;9.418;2024-03-23T10:12:44;98241.75;;;7.43;50.82
59154;BME280;44935;48.944;9.418;2024-03-23T10:15:18;98237.09;;;7.39;50.74
59154;BME280;44935;48.944;9.418;2024-03-23T10:17:45;98237.37;;;7.40;50.26
59154;BME280;44935;48.944;9.418;2024-03-23T10:20:12;98234.45;;;7.66;51.98
59154;BME280;44935;48.944;9.418;2024-03-23T10:22:39;98225.34;;;7.73;53.54
59154;BME280;44935;48.944;9.418;2024-03-23T10:25:08;98222.56;;;8.23;51.21
59154;BME280;44935;48.944;9.418;2024-03-23T10:27:35;98216.63;;;8.03;48.67
59154;BME280;44935;48.944;9.418;2024-03-23T10:30:11;98211.76;;;7.59;48.80
59154;BME280;44935;48.944;9.418;2024-03-23T10:32:38;98204.91;;;8.48;46.46
59154;BME280;44935;48.944;9.418;2024-03-23T10:35:21;98214.74;;;8.85;46.84
59154;BME280;44935;48.944;9.418;2024-03-23T10:37:48;98218.44;;;9.55;47.32
59154;BME280;44935;48.944;9.418;2024-03-23T10:40:16;98219.70;;;9.30;45.46
59154;BME280;44935;48.944;9.418;2024-03-23T10:42:43;98223.30;;;9.20;44.85
59154;BME280;44935;48.944;9.418;2024-03-23T10:45:11;98226.76;;;8.85;44.38
59154;BME280;44935;48.944;9.418;2024-03-23T10:47:38;98227.45;;;8.59;45.00
59154;BME280;44935;48.944;9.418;2024-03-23T10:50:05;98225.87;;;8.29;46.81
59154;BME280;44935;48.944;9.418;2024-03-23T10:52:32;98225.67;;;8.19;46.72
59154;BME280;44935;48.944;9.418;2024-03-23T10:55:01;98220.76;;;9.66;45.79
59154;BME280;44935;48.944;9.418;2024-03-23T10:57:34;98217.57;;;10.02;44.39
59154;BME280;44935;48.944;9.418;2024-03-23T11:00:04;98228.90;;;9.33;42.99
59154;BME280;44935;48.944;9.418;2024-03-23T11:02:31;98237.04;;;9.17;44.43
59154;BME280;44935;48.944;9.418;2024-03-23T11:04:58;98242.23;;;8.12;44.42
59154;BME280;44935;48.944;9.418;2024-03-23T11:07:29;98254.73;;;7.61;45.62
59154;BME280;44935;48.944;9.418;2024-03-23T11:09:56;98266.95;;;5.94;47.76
59154;BME280;44935;48.944;9.418;2024-03-23T11:12:31;98278.84;;;5.05;50.45
59154;BME280;44935;48.944;9.418;2024-03-23T11:15:00;98286.71;;;4.57;53.28
59154;BME280;44935;48.944;9.418;2024-03-23T11:17:28;98295.56;;;4.96;56.35
59154;BME280;44935;48.944;9.418;2024-03-23T11:19:57;98295.04;;;4.81;56.19
59154;BME280;44935;48.944;9.418;2024-03-23T11:22:41;98282.25;;;5.22;55.99
59154;BME280;44935;48.944;9.418;2024-03-23T11:25:17;98277.51;;;5.66;55.64
59154;BME280;44935;48.944;9.418;2024-03-23T11:27:45;98273.02;;;6.06;54.90
59154;BME280;44935;48.944;9.418;2024-03-23T11:30:14;98271.28;;;6.50;53.65
59154;BME280;44935;48.944;9.418;2024-03-23T11:32:42;98274.20;;;6.25;52.30
59154;BME280;44935;48.944;9.418;2024-03-23T11:35:10;98275.44;;;7.06;51.44
59154;BME280;44935;48.944;9.418;2024-03-23T11:37:37;98275.52;;;7.28;50.99
59154;BME280;44935;48.944;9.418;2024-03-23T11:40:21;98277.50;;;7.29;50.00
59154;BME280;44935;48.944;9.418;2024-03-23T11:42:55;98277.56;;;6.79;52.30
59154;BME280;44935;48.944;9.418;2024-03-23T11:45:22;98277.16;;;7.05;51.14
59154;BME280;44935;48.944;9.418;2024-03-23T11:48:02;98280.06;;;7.60;51.10
59154;BME280;44935;48.944;9.418;2024-03-23T11:50:29;98283.33;;;7.39;52.37
59154;BME280;44935;48.944;9.418;2024-03-23T11:53:07;98285.26;;;7.34;52.56
59154;BME280;44935;48.944;9.418;2024-03-23T11:55:51;98284.41;;;7.76;51.42
59154;BME280;44935;48.944;9.418;2024-03-23T11:58:20;98287.94;;;7.61;51.74
59154;BME280;44935;48.944;9.418;2024-03-23T12:00:51;98282.95;;;7.03;52.69
59154;BME280;44935;48.944;9.418;2024-03-23T12:03:18;98275.94;;;7.04;52.11
59154;BME280;44935;48.944;9.418;2024-03-23T12:05:48;98267.47;;;7.29;51.83
59154;BME280;44935;48.944;9.418;2024-03-23T12:08:18;98263.35;;;7.32;51.03
59154;BME280;44935;48.944;9.418;2024-03-23T12:10:48;98264.43;;;7.30;51.81
59154;BME280;44935;48.944;9.418;2024-03-23T12:13:17;98257.59;;;7.62;51.80
59154;BME280;44935;48.944;9.418;2024-03-23T12:15:45;98262.40;;;7.50;51.34
59154;BME280;44935;48.944;9.418;2024-03-23T12:18:13;98259.73;;;8.12;50.77
59154;BME280;44935;48.944;9.418;2024-03-23T12:20:41;98260.12;;;8.49;50.40
59154;BME280;44935;48.944;9.418;2024-03-23T12:23:10;98260.88;;;8.76;47.48
59154;BME280;44935;48.944;9.418;2024-03-23T12:25:38;98259.06;;;8.74;47.13
59154;BME280;44935;48.944;9.418;2024-03-23T12:28:06;98250.98;;;8.39;47.46
59154;BME280;44935;48.944;9.418;2024-03-23T12:30:35;98253.74;;;8.02;48.14
59154;BME280;44935;48.944;9.418;2024-03-23T12:33:02;98253.83;;;7.78;48.41
59154;BME280;44935;48.944;9.418;2024-03-23T12:35:29;98251.04;;;7.80;48.71
59154;BME280;44935;48.944;9.418;2024-03-23T12:37:56;98246.42;;;7.98;47.94
59154;BME280;44935;48.944;9.418;2024-03-23T12:40:23;98244.07;;;8.58;49.60
59154;BME280;44935;48.944;9.418;2024-03-23T12:42:50;98234.45;;;8.06;46.67
59154;BME280;44935;48.944;9.418;2024-03-23T12:45:17;98236.50;;;8.63;46.01
59154;BME280;44935;48.944;9.418;2024-03-23T12:47:44;98231.60;;;8.22;46.84
59154;BME280;44935;48.944;9.418;2024-03-23T12:50:11;98228.48;;;8.52;46.38
59154;BME280;44935;48.944;9.418;2024-03-23T12:52:38;98225.69;;;8.42;45.80
59154;BME280;44935;48.944;9.418;2024-03-23T12:55:05;98218.10;;;8.02;44.82
59154;BME280;44935;48.944;9.418;2024-03-23T12:57:32;98226.93;;;7.79;45.28
59154;BME280;44935;48.944;9.418;2024-03-23T13:00:00;98221.78;;;7.72;45.72
59154;BME280;44935;48.944;9.418;2024-03-23T13:02:26;98229.63;;;7.58;44.15
59154;BME280;44935;48.944;9.418;2024-03-23T13:04:53;98227.55;;;8.24;44.60
59154;BME280;44935;48.944;9.418;2024-03-23T13:07:21;98229.25;;;8.24;43.69
59154;BME280;44935;48.944;9.418;2024-03-23T13:09:50;98228.96;;;8.45;43.21
59154;BME280;44935;48.944;9.418;2024-03-23T13:12:17;98227.01;;;9.28;41.25
59154;BME280;44935;48.944;9.418;2024-03-23T13:14:44;98218.36;;;8.94;41.56
59154;BME280;44935;48.944;9.418;2024-03-23T13:17:11;98216.49;;;8.18;42.55
59154;BME280;44935;48.944;9.418;2024-03-23T13:19:38;98219.89;;;8.26;43.39
59154;BME280;44935;48.944;9.418;2024-03-23T13:22:05;98218.90;;;7.96;44.37
59154;BME280;44935;48.944;9.418;2024-03-23T13:24:32;98211.72;;;7.70;42.81
59154;BME280;44935;48.944;9.418;2024-03-23T13:26:59;98209.89;;;8.13;42.85
59154;BME280;44935;48.944;9.418;2024-03-23T13:29:26;98202.63;;;8.64;43.25
59154;BME280;44935;48.944;9.418;2024-03-23T13:31:53;98196.06;;;7.96;42.02
59154;BME280;44935;48.944;9.418;2024-03-23T13:34:20;98191.71;;;8.73;43.21
59154;BME280;44935;48.944;9.418;2024-03-23T13:36:47;98188.06;;;9.10;42.99
59154;BME280;44935;48.944;9.418;2024-03-23T13:39:15;98184.23;;;8.90;40.90
59154;BME280;44935;48.944;9.418;2024-03-23T13:41:43;98177.96;;;7.78;42.27
59154;BME280;44935;48.944;9.418;2024-03-23T13:44:11;98166.24;;;8.41;41.53
59154;BME280;44935;48.944;9.418;2024-03-23T13:46:39;98159.49;;;8.06;42.09
59154;BME280;44935;48.944;9.418;2024-03-23T13:49:06;98163.33;;;7.88;41.77
59154;BME280;44935;48.944;9.418;2024-03-23T13:51:33;98166.14;;;8.66;41.51
59154;BME280;44935;48.944;9.418;2024-03-23T13:54:00;98161.76;;;8.81;38.75
59154;BME280;44935;48.944;9.418;2024-03-23T13:56:27;98158.68;;;8.12;39.07
59154;BME280;44935;48.944;9.418;2024-03-23T13:58:55;98157.77;;;8.04;40.23
59154;BME280;44935;48.944;9.418;2024-03-23T14:01:22;98169.94;;;7.25;39.77
59154;BME280;44935;48.944;9.418;2024-03-23T14:03:50;98186.37;;;7.10;40.83